createdAt,value
2023-03-05T00:01:54.715Z,11.05
2023-03-05T00:04:21.617Z,9.65
2023-03-05T00:06:48.479Z,11.70
2023-03-05T00:09:15.380Z,10.93
2023-03-05T00:11:42.267Z,13.00
2023-03-05T00:14:10.833Z,12.85
2023-03-05T00:16:37.806Z,16.80
2023-03-05T00:19:05.427Z,13.50
2023-03-05T00:21:32.287Z,16.13
2023-03-05T00:24:01.711Z,12.25
2023-03-05T00:26:29.021Z,11.50
2023-03-05T00:28:56.673Z,9.75
2023-03-05T00:31:25.194Z,11.25
2023-03-05T00:33:55.987Z,10.15
2023-03-05T00:36:23.358Z,18.88
2023-03-05T00:38:50.174Z,11.00
2023-03-05T00:41:17.128Z,15.45
2023-03-05T00:43:43.969Z,8.50
2023-03-05T00:46:11.550Z,11.02
2023-03-05T00:48:38.432Z,18.10
2023-03-05T00:51:05.359Z,10.45
2023-03-05T00:53:32.496Z,12.48
2023-03-05T00:55:59.461Z,13.95
2023-03-05T00:58:26.296Z,9.05
2023-03-05T01:00:53.590Z,11.80
2023-03-05T01:03:20.365Z,12.73
2023-03-05T01:05:48.596Z,17.52
2023-03-05T01:08:16.156Z,6.53
2023-03-05T01:10:43.020Z,9.05
2023-03-05T01:13:10.442Z,9.52
2023-03-05T01:15:37.255Z,12.20
2023-03-05T01:18:04.166Z,7.70
2023-03-05T01:20:30.986Z,11.73
2023-03-05T01:22:59.400Z,8.50
2023-03-05T01:25:26.151Z,7.50
2023-03-05T01:27:53.184Z,8.10
2023-03-05T01:30:20.192Z,15.13
2023-03-05T01:32:46.937Z,9.88
2023-03-05T01:35:18.487Z,11.65
2023-03-05T01:37:45.430Z,15.30
2023-03-05T01:40:13.084Z,7.03
2023-03-05T01:42:40.007Z,10.35
2023-03-05T01:45:07.118Z,7.50
2023-03-05T01:47:33.933Z,9.05
2023-03-05T01:50:00.854Z,8.55
2023-03-05T01:52:28.727Z,11.05
2023-03-05T01:55:01.154Z,6.82
2023-03-05T01:57:29.953Z,8.45
2023-03-05T01:59:59.309Z,9.73
2023-03-05T02:02:26.411Z,11.98
2023-03-05T02:04:54.394Z,8.85
2023-03-05T02:07:21.653Z,7.60
2023-03-05T02:09:48.530Z,8.55
2023-03-05T02:12:15.461Z,8.95
2023-03-05T02:14:45.641Z,9.20
2023-03-05T02:17:12.845Z,7.35
2023-03-05T02:19:47.303Z,12.82
2023-03-05T02:22:14.773Z,12.18
2023-03-05T02:24:41.661Z,10.77
2023-03-05T02:27:08.733Z,10.48
2023-03-05T02:29:37.613Z,9.02
2023-03-05T02:32:04.623Z,11.65
2023-03-05T02:34:31.416Z,11.70
2023-03-05T02:36:58.459Z,8.30
2023-03-05T02:39:25.506Z,11.35
2023-03-05T02:41:53.310Z,12.32
2023-03-05T02:44:20.117Z,8.40
2023-03-05T02:46:47.524Z,10.23
2023-03-05T02:49:14.301Z,12.50
2023-03-05T02:51:41.138Z,5.88
2023-03-05T02:54:08.417Z,12.95
2023-03-05T02:56:35.764Z,14.90
2023-03-05T02:59:02.572Z,5.55
2023-03-05T03:01:29.861Z,9.15
2023-03-05T03:03:57.606Z,10.00
2023-03-05T03:06:24.640Z,7.03
2023-03-05T03:08:51.520Z,8.88
2023-03-05T03:11:18.838Z,12.15
2023-03-05T03:13:45.789Z,10.25
2023-03-05T03:16:14.474Z,12.73
2023-03-05T03:18:41.538Z,12.13
2023-03-05T03:21:08.494Z,7.72
2023-03-05T03:23:35.366Z,12.45
2023-03-05T03:26:02.175Z,7.03
2023-03-05T03:28:28.923Z,12.50
2023-03-05T03:30:55.917Z,9.35
2023-03-05T03:33:22.868Z,10.00
2023-03-05T03:35:49.693Z,10.27
2023-03-05T03:38:16.432Z,8.32
2023-03-05T03:40:43.431Z,6.63
2023-03-05T03:43:10.814Z,16.80
2023-03-05T03:45:40.716Z,9.85
2023-03-05T03:48:07.470Z,5.30
2023-03-05T03:50:34.296Z,13.27
2023-03-05T03:53:01.186Z,10.85
2023-03-05T03:55:28.033Z,8.40
2023-03-05T03:57:54.746Z,7.47
2023-03-05T04:00:21.691Z,8.02
2023-03-05T04:02:48.776Z,9.55
2023-03-05T04:05:15.824Z,15.23
2023-03-05T04:07:42.889Z,9.13
2023-03-05T04:10:10.439Z,9.18
2023-03-05T04:12:37.254Z,12.60
2023-03-05T04:15:04.341Z,7.80
2023-03-05T04:17:31.160Z,8.98
2023-03-05T04:19:57.882Z,14.95
2023-03-05T04:22:24.591Z,15.77
2023-03-05T04:24:51.482Z,17.23
2023-03-05T04:27:18.442Z,11.77
2023-03-05T04:29:45.376Z,13.13
2023-03-05T04:32:12.396Z,17.48
2023-03-05T04:34:41.664Z,10.48
2023-03-05T04:37:08.520Z,23.73
2023-03-05T04:39:35.806Z,14.82
2023-03-05T04:42:02.629Z,19.17
2023-03-05T04:44:29.581Z,13.10
2023-03-05T04:46:56.386Z,15.75
2023-03-05T04:49:23.166Z,10.00
2023-03-05T04:51:50.072Z,11.20
2023-03-05T04:54:16.956Z,12.40
2023-03-05T04:56:43.729Z,15.43
2023-03-05T04:59:10.861Z,22.80
2023-03-05T05:01:38.940Z,17.45
2023-03-05T05:04:06.287Z,15.13
2023-03-05T05:06:33.442Z,14.70
2023-03-05T05:09:00.528Z,9.95
2023-03-05T05:11:27.527Z,8.13
2023-03-05T05:13:54.218Z,12.63
2023-03-05T05:16:21.165Z,8.55
2023-03-05T05:18:47.969Z,9.23
2023-03-05T05:21:15.119Z,7.95
2023-03-05T05:23:41.999Z,7.68
2023-03-05T05:26:09.716Z,5.82
2023-03-05T05:28:41.932Z,10.45
2023-03-05T05:31:15.691Z,7.88
2023-03-05T05:33:43.052Z,10.55
2023-03-05T05:36:11.564Z,7.30
2023-03-05T05:38:39.157Z,12.10
2023-03-05T05:41:09.628Z,9.98
2023-03-05T05:43:36.620Z,10.77
2023-03-05T05:46:05.135Z,11.45
2023-03-05T05:48:33.533Z,14.95
2023-03-05T05:51:04.672Z,12.15
2023-03-05T05:53:31.578Z,16.33
2023-03-05T05:55:58.479Z,17.98
2023-03-05T05:58:25.585Z,15.35
2023-03-05T06:00:52.355Z,15.38
2023-03-05T06:03:19.206Z,18.13
2023-03-05T06:05:47.630Z,18.17
2023-03-05T06:08:14.564Z,20.85
2023-03-05T06:10:41.459Z,20.40
2023-03-05T06:13:08.400Z,21.92
2023-03-05T06:15:35.253Z,21.67
2023-03-05T06:18:02.234Z,20.02
2023-03-05T06:20:29.229Z,20.23
2023-03-05T06:22:56.285Z,22.00
2023-03-05T06:25:23.288Z,21.27
2023-03-05T06:27:50.169Z,13.93
2023-03-05T06:30:17.191Z,21.88
2023-03-05T06:32:44.173Z,15.48
2023-03-05T06:35:11.013Z,10.75
2023-03-05T06:37:37.856Z,16.30
2023-03-05T06:40:05.577Z,16.02
2023-03-05T06:42:33.463Z,17.15
2023-03-05T06:45:00.233Z,15.70
2023-03-05T06:47:27.111Z,14.77
2023-03-05T06:49:53.978Z,17.60
2023-03-05T06:52:21.516Z,13.63
2023-03-05T06:54:48.278Z,16.38
2023-03-05T06:57:15.002Z,14.05
2023-03-05T06:59:41.875Z,12.63
2023-03-05T07:02:10.890Z,13.60
2023-03-05T07:04:37.785Z,14.10
2023-03-05T07:07:04.717Z,16.30
2023-03-05T07:09:31.605Z,12.07
2023-03-05T07:11:58.489Z,14.43
2023-03-05T07:14:25.584Z,11.18
2023-03-05T07:16:52.472Z,11.25
2023-03-05T07:19:19.316Z,16.02
2023-03-05T07:21:46.468Z,11.98
2023-03-05T07:24:13.811Z,8.30
2023-03-05T07:26:40.739Z,12.60
2023-03-05T07:29:07.453Z,12.60
2023-03-05T07:31:34.256Z,13.63
2023-03-05T07:34:01.996Z,11.07
2023-03-05T07:36:28.888Z,12.40
2023-03-05T07:38:55.699Z,9.55
2023-03-05T07:41:23.676Z,10.68
2023-03-05T07:43:51.938Z,8.98
2023-03-05T07:46:19.475Z,7.88
2023-03-05T07:48:46.309Z,7.68
2023-03-05T07:51:17.586Z,10.70
2023-03-05T07:53:44.822Z,7.57
2023-03-05T07:56:11.701Z,9.50
2023-03-05T07:58:38.945Z,8.18
2023-03-05T08:01:13.100Z,6.38
2023-03-05T08:03:40.903Z,5.45
2023-03-05T08:06:08.216Z,4.93
2023-03-05T08:08:36.263Z,3.13
2023-03-05T08:11:04.369Z,3.78
2023-03-05T08:13:31.330Z,2.22
2023-03-05T08:15:58.152Z,2.00
2023-03-05T08:18:25.194Z,2.45
2023-03-05T08:20:51.913Z,4.82
2023-03-05T08:23:18.625Z,3.40
2023-03-05T08:25:45.471Z,2.40
2023-03-05T08:28:12.235Z,2.20
2023-03-05T08:30:40.849Z,2.72
2023-03-05T08:33:07.634Z,3.75
2023-03-05T08:35:34.441Z,1.38
2023-03-05T08:38:01.197Z,3.42
2023-03-05T08:40:28.165Z,4.18
2023-03-05T08:42:54.895Z,3.25
2023-03-05T08:45:21.751Z,2.38
2023-03-05T08:47:48.556Z,3.53
2023-03-05T08:50:15.628Z,2.47
2023-03-05T08:52:44.023Z,5.15
2023-03-05T08:55:12.545Z,2.30
2023-03-05T08:57:39.389Z,0.98
2023-03-05T09:00:07.410Z,4.85
2023-03-05T09:02:34.206Z,4.10
2023-03-05T09:05:01.090Z,3.20
2023-03-05T09:07:27.933Z,6.93
2023-03-05T09:09:54.664Z,5.85
2023-03-05T09:12:21.522Z,2.67
2023-03-05T09:14:48.370Z,2.97
2023-03-05T09:17:15.303Z,3.33
2023-03-05T09:19:41.979Z,1.55
2023-03-05T09:22:08.783Z,3.47
2023-03-05T09:24:36.441Z,6.03
2023-03-05T09:27:03.298Z,2.58
2023-03-05T09:29:31.270Z,1.98
2023-03-05T09:31:58.301Z,1.95
2023-03-05T09:34:25.295Z,2.15
2023-03-05T09:36:52.111Z,4.43
2023-03-05T09:39:18.905Z,2.20
2023-03-05T09:42:01.255Z,1.88
2023-03-05T09:44:28.176Z,3.35
2023-03-05T09:47:14.673Z,1.95
2023-03-05T09:50:00.196Z,4.00
2023-03-05T09:52:45.610Z,2.22
2023-03-05T09:55:25.611Z,2.55
2023-03-05T09:57:55.909Z,5.50
2023-03-05T10:00:40.852Z,0.80
2023-03-05T10:03:14.982Z,1.98
2023-03-05T10:06:00.580Z,2.75
2023-03-05T10:08:31.238Z,3.00
2023-03-05T10:10:59.819Z,3.00
2023-03-05T10:13:29.304Z,2.75
2023-03-05T10:15:59.133Z,2.20
2023-03-05T10:18:33.101Z,2.13
2023-03-05T10:21:03.485Z,2.03
2023-03-05T10:23:31.947Z,3.08
2023-03-05T10:26:01.498Z,3.30
2023-03-05T10:28:34.118Z,2.42
2023-03-05T10:31:07.176Z,3.78
2023-03-05T10:33:34.052Z,4.10
2023-03-05T10:36:11.486Z,2.63
2023-03-05T10:38:50.151Z,4.30
2023-03-05T10:41:24.529Z,3.35
2023-03-05T10:43:57.395Z,3.10
2023-03-05T10:46:28.659Z,2.72
2023-03-05T10:48:55.441Z,1.98
2023-03-05T10:51:35.010Z,4.22
2023-03-05T10:54:04.848Z,3.50
2023-03-05T10:56:34.647Z,3.35
2023-03-05T10:59:03.905Z,4.35
2023-03-05T11:01:31.912Z,4.75
2023-03-05T11:04:00.379Z,2.70
2023-03-05T11:06:30.035Z,4.07
2023-03-05T11:09:14.758Z,2.20
2023-03-05T11:11:41.647Z,2.47
2023-03-05T11:14:22.109Z,2.95
2023-03-05T11:16:49.840Z,4.28
2023-03-05T11:19:20.175Z,4.05
2023-03-05T11:22:04.747Z,1.15
2023-03-05T11:24:31.592Z,2.20
2023-03-05T11:26:59.442Z,0.93
2023-03-05T11:29:28.026Z,5.10
2023-03-05T11:31:55.187Z,1.42
2023-03-05T11:34:23.981Z,2.53
2023-03-05T11:36:50.736Z,5.47
2023-03-05T11:39:18.323Z,2.05
2023-03-05T11:41:48.949Z,1.67
2023-03-05T11:44:34.744Z,1.90
2023-03-05T11:47:13.856Z,1.33
2023-03-05T11:49:43.970Z,2.78
2023-03-05T11:52:26.299Z,1.73
2023-03-05T11:55:12.024Z,1.80
2023-03-05T11:57:43.572Z,2.30
2023-03-05T12:00:16.204Z,1.83
2023-03-05T12:02:43.881Z,1.92
2023-03-05T12:05:14.542Z,1.65
2023-03-05T12:07:43.277Z,1.10
2023-03-05T12:10:16.271Z,2.08
2023-03-05T12:12:49.390Z,1.95
2023-03-05T12:15:20.122Z,1.77
2023-03-05T12:18:07.495Z,2.83
2023-03-05T12:20:50.236Z,5.10
2023-03-05T12:23:19.542Z,2.00
2023-03-05T12:25:51.846Z,1.80
2023-03-05T12:28:30.795Z,5.05
2023-03-05T12:31:01.241Z,3.08
2023-03-05T12:33:34.116Z,2.80
2023-03-05T12:36:19.800Z,3.10
2023-03-05T12:38:48.174Z,2.67
2023-03-05T12:41:25.758Z,4.25
2023-03-05T12:44:03.058Z,2.25
2023-03-05T12:48:56.962Z,5.20
2023-03-05T12:51:38.008Z,5.22
2023-03-05T12:54:26.213Z,2.42
2023-03-05T12:56:54.540Z,2.55
2023-03-05T12:59:23.559Z,5.13
2023-03-05T13:02:03.065Z,1.92
2023-03-05T13:04:31.669Z,3.33
2023-03-05T13:06:59.977Z,2.90
2023-03-05T13:09:28.517Z,2.42
2023-03-05T13:11:55.846Z,3.53
2023-03-05T13:14:31.664Z,19.40
2023-03-05T13:16:59.155Z,3.67
2023-03-05T13:19:26.240Z,1.48
2023-03-05T13:21:58.314Z,1.58
2023-03-05T13:24:25.235Z,4.13
2023-03-05T13:26:51.943Z,2.92
2023-03-05T13:29:19.723Z,2.08
2023-03-05T13:31:48.766Z,2.33
2023-03-05T13:34:18.671Z,1.88
2023-03-05T13:36:52.104Z,2.35
2023-03-05T13:39:24.867Z,2.40
2023-03-05T13:41:59.199Z,3.03
2023-03-05T13:44:26.221Z,3.85
2023-03-05T13:46:53.128Z,1.40
2023-03-05T13:49:21.249Z,1.67
2023-03-05T13:51:52.688Z,4.15
2023-03-05T13:54:20.104Z,4.18
2023-03-05T13:56:50.821Z,3.33
2023-03-05T13:59:18.937Z,2.78
2023-03-05T14:01:47.956Z,1.80
2023-03-05T14:04:14.772Z,1.95
2023-03-05T14:06:56.072Z,1.60
2023-03-05T14:09:24.787Z,3.97
2023-03-05T14:12:14.834Z,3.15
2023-03-05T14:14:43.639Z,2.90
2023-03-05T14:17:30.142Z,4.50
2023-03-05T14:20:27.418Z,0.88
2023-03-05T14:25:38.648Z,1.58
2023-03-05T14:28:05.838Z,2.85
2023-03-05T14:30:32.958Z,3.47
2023-03-05T14:33:00.716Z,3.72
2023-03-05T14:35:29.003Z,1.45
2023-03-05T14:37:57.114Z,6.13
2023-03-05T14:40:34.274Z,2.50
2023-03-05T14:43:02.150Z,3.67
2023-03-05T14:45:32.572Z,5.35
2023-03-05T14:48:00.492Z,4.20
2023-03-05T14:50:32.265Z,3.00
2023-03-05T14:53:00.402Z,3.13
2023-03-05T14:55:31.097Z,2.97
2023-03-05T14:58:01.400Z,3.72
2023-03-05T15:00:28.923Z,3.10
2023-03-05T15:02:55.854Z,3.35
2023-03-05T15:05:22.781Z,3.33
2023-03-05T15:07:50.253Z,3.83
2023-03-05T15:10:18.382Z,6.07
2023-03-05T15:12:45.329Z,3.70
2023-03-05T15:15:15.684Z,2.65
2023-03-05T15:17:44.554Z,3.65
2023-03-05T15:20:16.129Z,3.80
2023-03-05T15:22:42.936Z,2.67
2023-03-05T15:25:10.619Z,4.75
2023-03-05T15:27:39.002Z,2.95
2023-03-05T15:30:07.217Z,3.00
2023-03-05T15:32:34.907Z,5.53
2023-03-05T15:35:01.813Z,5.45
2023-03-05T15:37:28.792Z,3.03
2023-03-05T15:39:55.980Z,5.30
2023-03-05T15:42:23.133Z,3.50
2023-03-05T15:44:50.072Z,4.45
2023-03-05T15:47:17.129Z,4.85
2023-03-05T15:49:43.809Z,3.10
2023-03-05T15:52:10.949Z,3.78
2023-03-05T15:54:38.034Z,1.90
2023-03-05T15:57:08.258Z,3.58
2023-03-05T15:59:35.140Z,4.90
2023-03-05T16:02:02.286Z,4.13
2023-03-05T16:04:29.476Z,2.40
2023-03-05T16:06:59.076Z,3.70
2023-03-05T16:09:26.824Z,3.65
2023-03-05T16:11:53.694Z,3.22
2023-03-05T16:14:24.625Z,2.05
2023-03-05T16:16:53.100Z,5.57
2023-03-05T16:19:20.772Z,4.45
2023-03-05T16:21:47.682Z,2.38
2023-03-05T16:24:14.849Z,3.58
2023-03-05T16:26:42.377Z,5.28
2023-03-05T16:29:09.609Z,4.18
2023-03-05T16:31:38.269Z,3.08
2023-03-05T16:34:05.367Z,3.65
2023-03-05T16:36:35.321Z,3.85
2023-03-05T16:39:03.832Z,5.38
2023-03-05T16:41:31.036Z,4.13
2023-03-05T16:43:58.465Z,6.57
2023-03-05T16:46:28.926Z,5.30
2023-03-05T16:48:55.947Z,3.45
2023-03-05T16:51:22.883Z,6.75
2023-03-05T16:53:49.907Z,5.80
2023-03-05T16:56:16.985Z,4.18
2023-03-05T16:58:43.897Z,4.95
2023-03-05T17:01:15.860Z,7.53
2023-03-05T17:03:43.620Z,10.82
2023-03-05T17:06:14.774Z,7.68
2023-03-05T17:08:42.102Z,5.57
2023-03-05T17:11:09.582Z,5.55
2023-03-05T17:13:37.058Z,3.38
2023-03-05T17:16:04.987Z,4.68
2023-03-05T17:18:32.402Z,4.22
2023-03-05T17:21:00.505Z,7.20
2023-03-05T17:23:27.424Z,6.05
2023-03-05T17:25:54.370Z,5.68
2023-03-05T17:28:21.524Z,3.15
2023-03-05T17:30:48.472Z,3.20
2023-03-05T17:33:15.381Z,4.80
2023-03-05T17:35:48.365Z,2.83
2023-03-05T17:38:15.284Z,9.85
2023-03-05T17:40:42.199Z,3.15
2023-03-05T17:43:09.628Z,2.65
2023-03-05T17:45:36.652Z,4.20
2023-03-05T17:48:03.877Z,2.70
2023-03-05T17:50:30.842Z,1.98
2023-03-05T17:52:57.660Z,2.45
2023-03-05T17:55:25.692Z,6.57
2023-03-05T17:57:52.578Z,3.20
2023-03-05T18:00:21.034Z,5.43
2023-03-05T18:02:47.897Z,3.45
2023-03-05T18:05:14.926Z,4.38
2023-03-05T18:07:41.792Z,4.28
2023-03-05T18:10:09.370Z,6.13
2023-03-05T18:12:36.252Z,2.72
2023-03-05T18:15:04.957Z,6.13
2023-03-05T18:17:31.815Z,5.22
2023-03-05T18:19:58.646Z,4.13
2023-03-05T18:22:25.645Z,6.28
2023-03-05T18:24:52.398Z,9.65
2023-03-05T18:27:20.049Z,6.30
2023-03-05T18:29:48.326Z,3.40
2023-03-05T18:32:15.090Z,8.15
2023-03-05T18:34:42.047Z,7.13
2023-03-05T18:37:09.306Z,6.25
2023-03-05T18:39:36.489Z,8.45
2023-03-05T18:42:03.512Z,6.53
2023-03-05T18:44:30.289Z,12.95
2023-03-05T18:46:58.048Z,5.82
2023-03-05T18:49:27.291Z,5.03
2023-03-05T18:51:55.640Z,8.40
2023-03-05T18:54:22.498Z,6.50
2023-03-05T18:56:49.621Z,7.68
2023-03-05T18:59:16.393Z,5.30
2023-03-05T19:01:44.447Z,4.55
2023-03-05T19:04:11.577Z,4.95
2023-03-05T19:06:38.609Z,4.75
2023-03-05T19:09:12.120Z,5.53
2023-03-05T19:11:40.974Z,7.05
2023-03-05T19:14:07.794Z,4.38
2023-03-05T19:16:40.639Z,5.53
2023-03-05T19:19:20.454Z,4.50
2023-03-05T19:21:48.708Z,5.32
2023-03-05T19:24:16.531Z,5.50
2023-03-05T19:26:43.747Z,7.45
2023-03-05T19:29:11.123Z,8.93
2023-03-05T19:31:38.335Z,9.88
2023-03-05T19:34:05.436Z,8.18
2023-03-05T19:36:32.824Z,5.43
2023-03-05T19:38:59.927Z,7.53
2023-03-05T19:41:28.075Z,5.60
2023-03-05T19:43:55.093Z,6.22
2023-03-05T19:46:22.053Z,8.23
2023-03-05T19:48:49.615Z,8.25
2023-03-05T19:51:20.348Z,7.57
2023-03-05T19:53:47.543Z,9.02
2023-03-05T19:56:16.462Z,7.93
2023-03-05T19:58:47.642Z,9.77
2023-03-05T20:01:16.179Z,9.07
2023-03-05T20:03:47.116Z,9.52
2023-03-05T20:06:14.010Z,10.50
2023-03-05T20:08:40.915Z,9.02
2023-03-05T20:11:09.897Z,5.63
2023-03-05T20:13:37.070Z,9.55
2023-03-05T20:16:04.049Z,7.90
2023-03-05T20:18:30.926Z,7.72
2023-03-05T20:21:01.807Z,7.43
2023-03-05T20:23:28.936Z,9.43
2023-03-05T20:25:57.032Z,11.02
2023-03-05T20:28:26.147Z,9.25
2023-03-05T20:30:53.659Z,6.60
2023-03-05T20:33:20.877Z,9.20
2023-03-05T20:35:47.579Z,7.90
2023-03-05T20:38:29.577Z,9.00
2023-03-05T20:40:56.441Z,8.60
2023-03-05T20:43:23.491Z,10.10
2023-03-05T20:45:50.773Z,13.30
2023-03-05T20:48:17.980Z,8.57
2023-03-05T20:50:46.875Z,11.57
2023-03-05T20:53:14.089Z,9.80
2023-03-05T20:55:41.609Z,13.48
2023-03-05T20:58:09.690Z,11.02
2023-03-05T21:00:37.209Z,10.43
2023-03-05T21:03:03.972Z,12.13
2023-03-05T21:05:30.992Z,11.38
2023-03-05T21:07:58.579Z,13.40
2023-03-05T21:10:27.080Z,14.35
2023-03-05T21:12:54.403Z,12.13
2023-03-05T21:15:22.761Z,13.65
2023-03-05T21:17:49.718Z,18.38
2023-03-05T21:20:20.553Z,16.45
2023-03-05T21:22:47.527Z,17.77
2023-03-05T21:25:21.163Z,15.20
2023-03-05T21:27:48.908Z,18.70
2023-03-05T21:30:16.888Z,19.00
2023-03-05T21:32:43.759Z,15.05
2023-03-05T21:35:29.349Z,15.27
2023-03-05T21:37:56.264Z,13.95
2023-03-05T21:40:23.230Z,12.10
2023-03-05T21:42:50.430Z,17.55
2023-03-05T21:45:18.467Z,17.98
2023-03-05T21:47:45.316Z,17.27
2023-03-05T21:50:14.244Z,15.20
2023-03-05T21:52:41.331Z,17.15
2023-03-05T21:55:10.878Z,17.80
2023-03-05T21:57:37.596Z,16.75
2023-03-05T22:00:06.435Z,19.02
2023-03-05T22:02:39.534Z,13.73
2023-03-05T22:05:07.839Z,14.50
2023-03-05T22:07:34.630Z,14.80
2023-03-05T22:10:01.591Z,13.88
2023-03-05T22:12:47.758Z,13.07
2023-03-05T22:15:14.554Z,15.38
2023-03-05T22:17:41.376Z,12.95
2023-03-05T22:20:08.490Z,16.80
2023-03-05T22:22:36.489Z,15.80
2023-03-05T22:25:04.262Z,16.80
2023-03-05T22:27:31.378Z,15.77
2023-03-05T22:29:58.429Z,13.98
2023-03-05T22:32:25.303Z,10.98
2023-03-05T22:34:56.030Z,12.57
2023-03-05T22:37:22.872Z,16.63
2023-03-05T22:39:53.381Z,13.60
2023-03-05T22:42:20.167Z,12.23
2023-03-05T22:44:46.960Z,11.93
2023-03-05T22:47:13.828Z,14.35
2023-03-05T22:49:40.925Z,15.70
2023-03-05T22:52:07.906Z,16.73
2023-03-05T22:54:34.810Z,15.52
2023-03-05T22:57:01.772Z,15.63
2023-03-05T22:59:28.737Z,18.83
2023-03-05T23:01:55.469Z,19.25
2023-03-05T23:04:40.522Z,27.15
2023-03-05T23:07:07.477Z,17.60
2023-03-05T23:09:34.205Z,19.52
2023-03-05T23:12:01.132Z,22.20
2023-03-05T23:14:27.822Z,21.02
2023-03-05T23:16:54.725Z,26.35
2023-03-05T23:19:21.888Z,23.95
2023-03-05T23:21:48.716Z,28.15
2023-03-05T23:24:15.728Z,21.50
2023-03-05T23:26:42.693Z,27.75
2023-03-05T23:29:09.837Z,17.17
2023-03-05T23:31:36.676Z,21.95
2023-03-05T23:34:03.487Z,22.25
2023-03-05T23:36:30.251Z,23.58
2023-03-05T23:38:58.062Z,21.70
2023-03-05T23:41:24.971Z,21.90
2023-03-05T23:43:51.768Z,20.27
2023-03-05T23:46:18.487Z,21.08
2023-03-05T23:48:45.448Z,20.45
2023-03-05T23:51:12.376Z,19.25
2023-03-05T23:53:39.437Z,18.55
2023-03-05T23:56:10.658Z,19.95
2023-03-05T23:58:38.659Z,19.00
